Estaciones Metar próximas

 

LELL - Sabadell, Spain
Distancia a la estación: E 18km
Actualizado: 21/09/2020 20:00
Parcialmente nuboso
Parcialmente nuboso
 Viento del SE
Viento: SE 6 km/h
Temperatura: 21°C
Rocío: 18°C
Humedad: 83%
Barómetro: 1016 hPa
Nubes: Parcialmente nuboso
Visibilidad: 10 km
Detalle Nubes: Nubes dispersas 762 m
Parcialmente nuboso 1676 m
2020/09/21 18:00 LELL 211800Z 13003KT 090V180 9999 FEW025 SCT055 21/18 Q1016
LEBL - Barcelona Airpor, Spain
Distancia a la estación: SSE 33km
Actualizado: 21/09/2020 20:00
Nubes dispersas
Nubes dispersas
 Viento del NE
Viento: NE 11 km/h
Temperatura: 22°C
Rocío: 18°C
Humedad: 78%
Barómetro: 1015 hPa
Nubes: Nubes dispersas
Visibilidad: 10 km
Detalle Nubes: Nubes dispersas 610 m
2020/09/21 18:00 LEBL 211800Z 05006KT 9999 FEW020 22/18 Q1015 NOSIG
LERS - Reus (civ/Mil), Spain
Distancia a la estación: SO 75km
Actualizado: 21/09/2020 20:00
Muy nuboso
Muy nuboso
 Viento del NNO
Viento: NNO 15 km/h
Temperatura: 22°C
Rocío: 17°C
Humedad: 73%
Barómetro: 1016 hPa
Nubes: Muy nuboso
Visibilidad: 10 km
Detalle Nubes: Parcialmente nuboso 762 m
Nubes dispersas 914 m
Nubes dispersas 1067 m
Muy nuboso 1524 m
2020/09/21 18:00 LERS 211800Z 34008KT 300V030 9999 SCT025 FEW030TCU FEW035CB BKN050 22/17 Q1016
 
LEGE - Gerona/Costa Bra, Spain
Distancia a la estación: ENE 83km
Actualizado: 21/09/2020 20:00
Muy nuboso
Muy nuboso
 Viento del O
Viento: O 6 km/h
Temperatura: 18°C
Rocío: 17°C
Humedad: 94%
Barómetro: 1015 hPa
Nubes: Muy nuboso
Visibilidad: 10 km
Detalle Nubes: Parcialmente nuboso 610 m
Muy nuboso 1524 m
2020/09/21 18:00 LEGE 211800Z 27003KT 220V340 9999 SCT020 BKN050 18/17 Q1015
LFMP - Perpignan/Rivesa, France
Distancia a la estación: NNE 155km
Actualizado: 21/09/2020 20:00
Despejado
Despejado
 Viento del SSO
Viento: SSO 11 km/h
Temperatura: 20°C
Rocío: 17°C
Humedad: 83%
Barómetro: 1015 hPa
Resumen: Despejado
Visibilidad: greater than 10 km
2020/09/21 18:00 LFMP 211800Z AUTO 20006KT CAVOK 20/17 Q1015 TEMPO SHRA BKN040TCU
LFMK - Carcassonne/Salv, France
Distancia a la estación: N 191km
Actualizado: 21/09/2020 20:00
Tormenta
Tormenta
 Viento del O
Viento: O 19 km/h
Temperatura: 21°C
Rocío: 16°C
Humedad: 73%
Barómetro: 1015 hPa
Nubes: Tormenta
Visibilidad: 10 km
2020/09/21 18:00 LFMK 211800Z AUTO 27010KT 9999 ///CB 21/16 Q1015 TEMPO 1500 TSRA
 
LEHC - Huesca-Pirineos, Spain
Distancia a la estación: ONO 193km
Actualizado: 21/09/2020 20:00
Despejado
Despejado
 Viento del varies
Viento: varies 4 km/h
Temperatura: 19°C
Rocío: 13°C
Humedad: 68%
Barómetro: 1016 hPa
Resumen: Despejado
Visibilidad: greater than 10 km
2020/09/21 18:00 LEHC 211800Z AUTO VRB02KT CAVOK 19/13 Q1016
LFMU - Beziers/Vias, France
Distancia a la estación: NNE 232km
Actualizado: 21/09/2020 20:00
Despejado
Despejado
 Viento del SSO
Viento: SSO 11 km/h
Temperatura: 22°C
Rocío: 18°C
Humedad: 78%
Barómetro: 1014 hPa
Resumen: Despejado
Visibilidad: greater than 10 km
2020/09/21 18:00 LFMU 211800Z AUTO 21006KT CAVOK 22/18 Q1014 BECMG 27012KT
LEPA - Palma De Mallorc, Spain
Distancia a la estación: SSE 233km
Actualizado: 21/09/2020 20:00
Nubes dispersas
Nubes dispersas
 Viento del SO
Viento: SO 9 km/h
Temperatura: 26°C
Rocío: 19°C
Humedad: 65%
Barómetro: 1015 hPa
Nubes: Nubes dispersas
Visibilidad: 10 km
Detalle Nubes: Nubes dispersas 610 m
2020/09/21 18:00 LEPA 211800Z 23005KT 9999 FEW020 26/19 Q1015 NOSIG
 
LFBO - Toulouse/Blagnac, France
Distancia a la estación: N 236km
Actualizado: 21/09/2020 20:00
Despejado
Despejado
 Viento del ONO
Viento: ONO 13 km/h
Temperatura: 19°C
Rocío: 16°C
Humedad: 83%
Barómetro: 1016 hPa
Resumen: Despejado
Visibilidad: greater than 10 km
2020/09/21 18:00 LFBO 211800Z AUTO 29007KT CAVOK 19/16 Q1016 TEMPO 4000 -SHRA SCT030CB BKN040
LFBT - Tarbes/Ossun, France
Distancia a la estación: NO 239km
Actualizado: 21/09/2020 20:00
Tormenta
Tormenta
 Viento del OSO
Viento: OSO 15 km/h
Temperatura: 17°C
Rocío: 15°C
Humedad: 88%
Barómetro: 1018 hPa
Nubes: Tormenta
Visibilidad: 10 km
Detalle Nubes: Muy nuboso 305 m
Muy nuboso 488 m
Muy nuboso 732 m
2020/09/21 18:00 LFBT 211800Z AUTO 25008KT 220V280 9999 BKN010/// BKN016/// BKN024/// ///TCU 17/15 Q1018 TEMPO 30015G30KT 2000 TSRA BKN006 BKN020CB
LEZG - Zaragoza (mil/Ci, Spain
Distancia a la estación: O 242km
Actualizado: 21/09/2020 20:00
Nubes dispersas
Nubes dispersas
 Viento del ONO
Viento: ONO 13 km/h
Temperatura: 23°C
Rocío: 13°C
Humedad: 53%
Barómetro: 1016 hPa
Nubes: Nubes dispersas
Visibilidad: 10 km
Detalle Nubes: Nubes dispersas 2591 m
2020/09/21 18:00 LEZG 211800Z 29007KT 9999 FEW085 23/13 Q1016